Baie-Comeau, Canada
Current Conditions -  °F | °C
As of 2:00 PM on Monday 20 Oct 2014 (Local Time) from CYBC Reporting Station
Overcast Overcast  
Wind Chill: 35°   Ceiling: 8000
Heat Index: 43°   Visibility: 9mi
Dew Point: 28°   Wind: 17mph
Humidity: 57%   Direction: 280°W
Pressure: 29.67"   Gusts: 26mph
Location:  49.22°N, 68.15°W
Report Text: CYBC 201800Z AUTO 28015G23KT 9SM OVC080 06/M02 A2967 RMK TS/LTNG TEMPO UNAVBL SLP047
Loading
Personal Weather Stations






























Interactive Weather Map
Tropical Storm Tracking
New forecast layout! Learn more

10-Day Weather Forecast

Advertisements
Track Severe Weather on mobile